sensor_id;sensor_type;location;lat;lon;timestamp;pressure;altitude;pressure_sealevel;temperature;humidity
46722;BME280;32455;43.430;23.136;2023-05-07T00:01:36;98381.66;;;9.72;100.00
46722;BME280;32455;43.430;23.136;2023-05-07T00:04:22;98381.47;;;9.67;100.00
46722;BME280;32455;43.430;23.136;2023-05-07T00:07:08;98374.69;;;9.58;100.00
46722;BME280;32455;43.430;23.136;2023-05-07T00:09:53;98368.91;;;9.54;100.00
46722;BME280;32455;43.430;23.136;2023-05-07T00:12:40;98383.38;;;9.60;100.00
46722;BME280;32455;43.430;23.136;2023-05-07T00:15:26;98366.06;;;9.49;100.00
46722;BME280;32455;43.430;23.136;2023-05-07T00:18:11;98376.31;;;9.65;100.00
46722;BME280;32455;43.430;23.136;2023-05-07T00:20:56;98363.31;;;9.69;100.00
46722;BME280;32455;43.430;23.136;2023-05-07T00:23:42;98376.84;;;9.87;100.00
46722;BME280;32455;43.430;23.136;2023-05-07T00:26:28;98362.25;;;9.76;100.00
46722;BME280;32455;43.430;23.136;2023-05-07T00:29:13;98355.03;;;9.70;100.00
46722;BME280;32455;43.430;23.136;2023-05-07T00:31:59;98348.03;;;9.69;100.00
46722;BME280;32455;43.430;23.136;2023-05-07T00:34:45;98360.22;;;9.65;100.00
46722;BME280;32455;43.430;23.136;2023-05-07T00:37:30;98365.56;;;9.72;100.00
46722;BME280;32455;43.430;23.136;2023-05-07T00:40:16;98362.28;;;9.70;100.00
46722;BME280;32455;43.430;23.136;2023-05-07T00:43:01;98359.41;;;9.58;100.00
46722;BME280;32455;43.430;23.136;2023-05-07T00:45:48;98364.41;;;9.41;100.00
46722;BME280;32455;43.430;23.136;2023-05-07T00:48:33;98354.56;;;9.22;100.00
46722;BME280;32455;43.430;23.136;2023-05-07T00:51:18;98342.63;;;9.18;100.00
46722;BME280;32455;43.430;23.136;2023-05-07T00:54:04;98347.13;;;9.24;100.00
46722;BME280;32455;43.430;23.136;2023-05-07T00:56:50;98353.72;;;9.35;100.00
46722;BME280;32455;43.430;23.136;2023-05-07T00:59:37;98363.56;;;9.54;100.00
46722;BME280;32455;43.430;23.136;2023-05-07T01:02:23;98345.22;;;9.51;100.00
46722;BME280;32455;43.430;23.136;2023-05-07T01:05:11;98351.59;;;9.57;100.00
46722;BME280;32455;43.430;23.136;2023-05-07T01:07:58;98340.03;;;9.56;100.00
46722;BME280;32455;43.430;23.136;2023-05-07T01:10:44;98350.09;;;9.67;100.00
46722;BME280;32455;43.430;23.136;2023-05-07T01:13:30;98347.28;;;9.49;100.00
46722;BME280;32455;43.430;23.136;2023-05-07T01:16:16;98350.81;;;9.43;100.00
46722;BME280;32455;43.430;23.136;2023-05-07T01:19:01;98338.44;;;9.35;100.00
46722;BME280;32455;43.430;23.136;2023-05-07T01:21:48;98335.59;;;9.23;100.00
46722;BME280;32455;43.430;23.136;2023-05-07T01:24:34;98345.22;;;9.51;100.00
46722;BME280;32455;43.430;23.136;2023-05-07T01:27:21;98349.03;;;9.75;100.00
46722;BME280;32455;43.430;23.136;2023-05-07T01:30:08;98354.59;;;9.80;100.00
46722;BME280;32455;43.430;23.136;2023-05-07T01:33:15;98346.56;;;9.73;100.00
46722;BME280;32455;43.430;23.136;2023-05-07T01:36:03;98346.56;;;9.73;100.00
46722;BME280;32455;43.430;23.136;2023-05-07T01:38:51;98343.72;;;9.68;100.00
46722;BME280;32455;43.430;23.136;2023-05-07T01:41:37;98330.94;;;9.57;100.00
46722;BME280;32455;43.430;23.136;2023-05-07T01:44:23;98340.00;;;9.63;100.00
46722;BME280;32455;43.430;23.136;2023-05-07T01:47:09;98319.41;;;9.50;100.00
46722;BME280;32455;43.430;23.136;2023-05-07T01:49:55;98322.69;;;9.59;100.00
46722;BME280;32455;43.430;23.136;2023-05-07T01:52:41;98325.34;;;9.65;100.00
46722;BME280;32455;43.430;23.136;2023-05-07T01:55:27;98307.59;;;9.64;100.00
46722;BME280;32455;43.430;23.136;2023-05-07T01:58:12;98299.81;;;9.49;100.00
46722;BME280;32455;43.430;23.136;2023-05-07T02:00:57;98306.78;;;9.64;100.00
46722;BME280;32455;43.430;23.136;2023-05-07T02:03:42;98307.97;;;9.74;100.00
46722;BME280;32455;43.430;23.136;2023-05-07T02:06:27;98291.06;;;9.67;100.00
46722;BME280;32455;43.430;23.136;2023-05-07T02:09:13;98297.41;;;9.79;100.00
46722;BME280;32455;43.430;23.136;2023-05-07T02:12:00;98302.94;;;9.91;100.00
46722;BME280;32455;43.430;23.136;2023-05-07T02:14:46;98288.84;;;10.02;100.00
46722;BME280;32455;43.430;23.136;2023-05-07T02:17:31;98294.78;;;10.04;100.00
46722;BME280;32455;43.430;23.136;2023-05-07T02:20:18;98284.13;;;9.98;100.00
46722;BME280;32455;43.430;23.136;2023-05-07T02:23:03;98287.78;;;10.03;100.00
46722;BME280;32455;43.430;23.136;2023-05-07T02:25:49;98291.31;;;9.97;100.00
46722;BME280;32455;43.430;23.136;2023-05-07T02:28:34;98302.34;;;9.83;100.00
46722;BME280;32455;43.430;23.136;2023-05-07T02:31:23;98293.56;;;9.62;100.00
46722;BME280;32455;43.430;23.136;2023-05-07T02:34:08;98291.00;;;9.42;100.00
46722;BME280;32455;43.430;23.136;2023-05-07T02:36:53;98294.28;;;9.38;100.00
46722;BME280;32455;43.430;23.136;2023-05-07T02:39:39;98298.03;;;9.30;100.00
46722;BME280;32455;43.430;23.136;2023-05-07T02:42:25;98297.81;;;9.32;100.00
46722;BME280;32455;43.430;23.136;2023-05-07T02:45:10;98301.13;;;9.34;100.00
46722;BME280;32455;43.430;23.136;2023-05-07T02:47:56;98307.47;;;9.46;100.00
46722;BME280;32455;43.430;23.136;2023-05-07T02:50:41;98301.91;;;9.41;100.00
46722;BME280;32455;43.430;23.136;2023-05-07T02:53:27;98310.22;;;9.19;100.00
46722;BME280;32455;43.430;23.136;2023-05-07T02:56:12;98298.09;;;9.10;100.00
46722;BME280;32455;43.430;23.136;2023-05-07T02:58:59;98302.41;;;9.11;100.00
46722;BME280;32455;43.430;23.136;2023-05-07T03:01:44;98306.13;;;9.10;100.00
46722;BME280;32455;43.430;23.136;2023-05-07T03:04:30;98312.50;;;9.16;100.00
46722;BME280;32455;43.430;23.136;2023-05-07T03:07:15;98316.81;;;9.23;100.00
46722;BME280;32455;43.430;23.136;2023-05-07T03:10:00;98319.94;;;9.14;100.00
46722;BME280;32455;43.430;23.136;2023-05-07T03:12:46;98325.53;;;8.92;100.00
46722;BME280;32455;43.430;23.136;2023-05-07T03:15:31;98324.53;;;8.80;100.00
46722;BME280;32455;43.430;23.136;2023-05-07T03:18:17;98321.44;;;8.83;100.00
46722;BME280;32455;43.430;23.136;2023-05-07T03:21:02;98312.56;;;8.76;100.00
46722;BME280;32455;43.430;23.136;2023-05-07T03:23:47;98323.69;;;8.93;100.00
46722;BME280;32455;43.430;23.136;2023-05-07T03:26:33;98323.47;;;9.01;100.00
46722;BME280;32455;43.430;23.136;2023-05-07T03:29:18;98330.25;;;9.03;100.00
46722;BME280;32455;43.430;23.136;2023-05-07T03:32:03;98324.28;;;9.01;100.00
46722;BME280;32455;43.430;23.136;2023-05-07T03:34:49;98334.78;;;9.03;100.00
46722;BME280;32455;43.430;23.136;2023-05-07T03:37:35;98332.94;;;9.10;100.00
46722;BME280;32455;43.430;23.136;2023-05-07T03:40:20;98330.84;;;9.19;100.00
46722;BME280;32455;43.430;23.136;2023-05-07T03:43:04;98340.75;;;9.18;100.00
46722;BME280;32455;43.430;23.136;2023-05-07T03:45:50;98338.06;;;9.12;100.00
46722;BME280;32455;43.430;23.136;2023-05-07T03:48:35;98340.34;;;9.15;100.00
46722;BME280;32455;43.430;23.136;2023-05-07T03:51:21;98346.94;;;9.19;100.00
46722;BME280;32455;43.430;23.136;2023-05-07T03:54:06;98357.22;;;9.35;100.00
46722;BME280;32455;43.430;23.136;2023-05-07T03:56:51;98356.53;;;9.60;100.00
46722;BME280;32455;43.430;23.136;2023-05-07T03:59:36;98367.81;;;9.82;100.00
46722;BME280;32455;43.430;23.136;2023-05-07T04:02:21;98367.19;;;9.79;100.00
46722;BME280;32455;43.430;23.136;2023-05-07T04:05:06;98358.38;;;9.59;100.00
46722;BME280;32455;43.430;23.136;2023-05-07T04:07:52;98372.53;;;9.79;100.00
46722;BME280;32455;43.430;23.136;2023-05-07T04:10:37;98370.84;;;9.92;100.00
46722;BME280;32455;43.430;23.136;2023-05-07T04:13:23;98381.69;;;10.10;100.00
46722;BME280;32455;43.430;23.136;2023-05-07T04:16:08;98396.31;;;10.21;100.00
46722;BME280;32455;43.430;23.136;2023-05-07T04:18:53;98390.97;;;10.14;100.00
46722;BME280;32455;43.430;23.136;2023-05-07T04:21:39;98392.81;;;10.20;100.00
46722;BME280;32455;43.430;23.136;2023-05-07T04:24:24;98388.38;;;10.39;100.00
46722;BME280;32455;43.430;23.136;2023-05-07T04:27:10;98389.91;;;10.60;100.00
46722;BME280;32455;43.430;23.136;2023-05-07T04:29:55;98384.88;;;10.70;100.00
46722;BME280;32455;43.430;23.136;2023-05-07T04:32:41;98390.63;;;10.74;100.00
46722;BME280;32455;43.430;23.136;2023-05-07T04:35:26;98384.41;;;10.80;100.00
46722;BME280;32455;43.430;23.136;2023-05-07T04:38:11;98386.88;;;11.07;100.00
46722;BME280;32455;43.430;23.136;2023-05-07T04:41:02;98398.84;;;11.29;100.00
46722;BME280;32455;43.430;23.136;2023-05-07T04:43:47;98394.09;;;11.49;100.00
46722;BME280;32455;43.430;23.136;2023-05-07T04:46:33;98408.84;;;11.65;100.00
46722;BME280;32455;43.430;23.136;2023-05-07T04:49:18;98402.28;;;11.61;100.00
46722;BME280;32455;43.430;23.136;2023-05-07T04:52:04;98410.25;;;11.68;100.00
46722;BME280;32455;43.430;23.136;2023-05-07T04:54:49;98414.97;;;11.72;100.00
46722;BME280;32455;43.430;23.136;2023-05-07T04:57:35;98431.09;;;11.97;100.00
46722;BME280;32455;43.430;23.136;2023-05-07T05:00:20;98422.31;;;12.02;100.00
46722;BME280;32455;43.430;23.136;2023-05-07T05:03:06;98438.31;;;12.15;100.00
46722;BME280;32455;43.430;23.136;2023-05-07T05:05:52;98431.44;;;12.19;100.00
46722;BME280;32455;43.430;23.136;2023-05-07T05:08:37;98438.09;;;12.35;100.00
46722;BME280;32455;43.430;23.136;2023-05-07T05:11:23;98423.94;;;12.40;100.00
46722;BME280;32455;43.430;23.136;2023-05-07T05:14:08;98432.38;;;12.43;100.00
46722;BME280;32455;43.430;23.136;2023-05-07T05:16:53;98424.94;;;12.57;100.00
46722;BME280;32455;43.430;23.136;2023-05-07T05:19:38;98428.38;;;12.64;100.00
46722;BME280;32455;43.430;23.136;2023-05-07T05:22:22;98424.97;;;12.69;100.00
46722;BME280;32455;43.430;23.136;2023-05-07T05:25:08;98408.09;;;12.73;100.00
46722;BME280;32455;43.430;23.136;2023-05-07T05:27:53;98421.84;;;12.84;100.00
46722;BME280;32455;43.430;23.136;2023-05-07T05:30:39;98427.75;;;12.62;100.00
46722;BME280;32455;43.430;23.136;2023-05-07T05:33:25;98437.16;;;12.71;100.00
46722;BME280;32455;43.430;23.136;2023-05-07T05:36:11;98433.75;;;13.06;100.00
46722;BME280;32455;43.430;23.136;2023-05-07T05:38:58;98415.19;;;12.98;100.00
46722;BME280;32455;43.430;23.136;2023-05-07T05:41:43;98416.25;;;13.09;100.00
46722;BME280;32455;43.430;23.136;2023-05-07T05:44:28;98417.50;;;13.24;100.00
46722;BME280;32455;43.430;23.136;2023-05-07T05:47:14;98431.81;;;13.37;100.00
46722;BME280;32455;43.430;23.136;2023-05-07T05:49:59;98422.03;;;13.36;100.00
46722;BME280;32455;43.430;23.136;2023-05-07T05:52:45;98414.66;;;13.55;100.00
46722;BME280;32455;43.430;23.136;2023-05-07T05:55:30;98427.31;;;13.66;100.00
46722;BME280;32455;43.430;23.136;2023-05-07T05:58:17;98428.28;;;13.60;100.00
46722;BME280;32455;43.430;23.136;2023-05-07T06:01:03;98440.25;;;13.40;100.00
46722;BME280;32455;43.430;23.136;2023-05-07T06:03:48;98432.84;;;13.71;100.00
46722;BME280;32455;43.430;23.136;2023-05-07T06:06:34;98450.78;;;14.00;100.00
46722;BME280;32455;43.430;23.136;2023-05-07T06:09:19;98450.06;;;14.05;100.00
46722;BME280;32455;43.430;23.136;2023-05-07T06:12:05;98454.63;;;14.04;100.00
46722;BME280;32455;43.430;23.136;2023-05-07T06:14:50;98446.28;;;14.18;100.00
46722;BME280;32455;43.430;23.136;2023-05-07T06:17:36;98445.75;;;14.33;100.00
46722;BME280;32455;43.430;23.136;2023-05-07T06:20:21;98447.09;;;14.18;100.00
46722;BME280;32455;43.430;23.136;2023-05-07T06:23:06;98453.53;;;14.17;100.00
46722;BME280;32455;43.430;23.136;2023-05-07T06:25:52;98452.84;;;14.22;100.00
46722;BME280;32455;43.430;23.136;2023-05-07T06:28:37;98446.72;;;14.26;100.00
46722;BME280;32455;43.430;23.136;2023-05-07T06:31:22;98446.28;;;14.46;100.00
46722;BME280;32455;43.430;23.136;2023-05-07T06:34:07;98461.81;;;14.51;100.00
46722;BME280;32455;43.430;23.136;2023-05-07T06:36:52;98450.06;;;14.57;100.00
46722;BME280;32455;43.430;23.136;2023-05-07T06:39:37;98449.59;;;14.77;100.00
46722;BME280;32455;43.430;23.136;2023-05-07T06:42:22;98440.84;;;14.70;100.00
46722;BME280;32455;43.430;23.136;2023-05-07T06:45:08;98444.91;;;14.72;100.00
46722;BME280;32455;43.430;23.136;2023-05-07T06:47:53;98432.91;;;14.97;100.00
46722;BME280;32455;43.430;23.136;2023-05-07T06:50:39;98433.66;;;15.09;100.00
46722;BME280;32455;43.430;23.136;2023-05-07T06:53:25;98425.63;;;15.14;100.00
46722;BME280;32455;43.430;23.136;2023-05-07T06:56:10;98420.88;;;15.21;100.00
46722;BME280;32455;43.430;23.136;2023-05-07T06:58:55;98443.34;;;15.56;100.00
46722;BME280;32455;43.430;23.136;2023-05-07T07:01:39;98449.75;;;15.66;100.00
46722;BME280;32455;43.430;23.136;2023-05-07T07:04:25;98440.69;;;15.61;100.00
46722;BME280;32455;43.430;23.136;2023-05-07T07:07:11;98447.97;;;15.94;100.00
46722;BME280;32455;43.430;23.136;2023-05-07T07:09:56;98431.94;;;15.92;100.00
46722;BME280;32455;43.430;23.136;2023-05-07T07:12:42;98446.53;;;16.08;97.63
46722;BME280;32455;43.430;23.136;2023-05-07T07:15:28;98436.44;;;16.03;96.71
46722;BME280;32455;43.430;23.136;2023-05-07T07:18:14;98451.00;;;16.41;97.58
46722;BME280;32455;43.430;23.136;2023-05-07T07:20:59;98448.66;;;16.50;94.79
46722;BME280;32455;43.430;23.136;2023-05-07T07:23:44;98436.19;;;16.49;94.74
46722;BME280;32455;43.430;23.136;2023-05-07T07:26:29;98438.72;;;16.83;95.59
46722;BME280;32455;43.430;23.136;2023-05-07T07:29:14;98454.03;;;16.94;91.92
46722;BME280;32455;43.430;23.136;2023-05-07T07:32:00;98447.53;;;16.95;94.84
46722;BME280;32455;43.430;23.136;2023-05-07T07:34:47;98450.78;;;17.24;92.88
46722;BME280;32455;43.430;23.136;2023-05-07T07:37:33;98454.53;;;16.91;98.08
46722;BME280;32455;43.430;23.136;2023-05-07T07:40:18;98453.19;;;17.52;91.65
46722;BME280;32455;43.430;23.136;2023-05-07T07:43:04;98452.09;;;17.53;92.37
46722;BME280;32455;43.430;23.136;2023-05-07T07:45:50;98453.53;;;17.29;92.66
46722;BME280;32455;43.430;23.136;2023-05-07T07:48:36;98454.31;;;17.62;93.69
46722;BME280;32455;43.430;23.136;2023-05-07T07:51:21;98462.66;;;17.82;93.41
46722;BME280;32455;43.430;23.136;2023-05-07T07:54:06;98452.41;;;17.94;91.56
46722;BME280;32455;43.430;23.136;2023-05-07T07:56:52;98463.63;;;18.13;90.30
46722;BME280;32455;43.430;23.136;2023-05-07T07:59:37;98460.72;;;18.30;90.67
46722;BME280;32455;43.430;23.136;2023-05-07T08:02:22;98461.88;;;18.49;90.16
46722;BME280;32455;43.430;23.136;2023-05-07T08:05:08;98455.09;;;18.52;90.55
46722;BME280;32455;43.430;23.136;2023-05-07T08:07:53;98456.44;;;18.49;89.85
46722;BME280;32455;43.430;23.136;2023-05-07T08:10:39;98467.91;;;18.62;87.72
46722;BME280;32455;43.430;23.136;2023-05-07T08:13:24;98466.31;;;18.71;91.62
46722;BME280;32455;43.430;23.136;2023-05-07T08:16:10;98462.94;;;18.43;88.75
46722;BME280;32455;43.430;23.136;2023-05-07T08:18:55;98456.28;;;18.76;88.46
46722;BME280;32455;43.430;23.136;2023-05-07T08:21:40;98473.50;;;19.13;84.85
46722;BME280;32455;43.430;23.136;2023-05-07T08:24:25;98472.13;;;19.25;85.98
46722;BME280;32455;43.430;23.136;2023-05-07T08:27:11;98460.97;;;19.12;82.80
46722;BME280;32455;43.430;23.136;2023-05-07T08:29:56;98453.47;;;18.66;74.97
46722;BME280;32455;43.430;23.136;2023-05-07T08:32:41;98448.44;;;19.26;73.71
46722;BME280;32455;43.430;23.136;2023-05-07T08:35:26;98448.16;;;19.43;76.19
46722;BME280;32455;43.430;23.136;2023-05-07T08:38:12;98445.72;;;19.41;72.62
46722;BME280;32455;43.430;23.136;2023-05-07T08:40:57;98433.72;;;19.68;74.02
46722;BME280;32455;43.430;23.136;2023-05-07T08:43:47;98435.03;;;19.86;70.86
46722;BME280;32455;43.430;23.136;2023-05-07T08:46:32;98437.19;;;19.94;72.61
46722;BME280;32455;43.430;23.136;2023-05-07T08:49:19;98432.06;;;19.87;69.84
46722;BME280;32455;43.430;23.136;2023-05-07T08:52:05;98426.56;;;19.97;72.34
46722;BME280;32455;43.430;23.136;2023-05-07T08:54:50;98414.75;;;20.17;68.91
46722;BME280;32455;43.430;23.136;2023-05-07T08:57:36;98415.78;;;20.32;65.82
46722;BME280;32455;43.430;23.136;2023-05-07T09:00:21;98411.50;;;20.10;69.06
46722;BME280;32455;43.430;23.136;2023-05-07T09:03:06;98417.22;;;20.14;69.11
46722;BME280;32455;43.430;23.136;2023-05-07T09:05:52;98419.28;;;20.47;63.72
46722;BME280;32455;43.430;23.136;2023-05-07T09:08:37;98430.44;;;20.46;64.67
46722;BME280;32455;43.430;23.136;2023-05-07T09:11:23;98428.31;;;20.43;62.90
46722;BME280;32455;43.430;23.136;2023-05-07T09:14:09;98425.69;;;20.72;67.35
46722;BME280;32455;43.430;23.136;2023-05-07T09:16:54;98432.78;;;20.78;64.24
46722;BME280;32455;43.430;23.136;2023-05-07T09:19:39;98416.53;;;20.47;63.42
46722;BME280;32455;43.430;23.136;2023-05-07T09:22:25;98421.81;;;20.83;63.35
46722;BME280;32455;43.430;23.136;2023-05-07T09:25:10;98422.97;;;20.72;62.93
46722;BME280;32455;43.430;23.136;2023-05-07T09:27:55;98408.16;;;20.83;62.09
46722;BME280;32455;43.430;23.136;2023-05-07T09:30:41;98408.19;;;20.78;63.30
46722;BME280;32455;43.430;23.136;2023-05-07T09:33:27;98415.19;;;20.89;64.07
46722;BME280;32455;43.430;23.136;2023-05-07T09:36:13;98416.28;;;21.27;61.25
46722;BME280;32455;43.430;23.136;2023-05-07T09:39:02;98407.25;;;20.93;62.43
46722;BME280;32455;43.430;23.136;2023-05-07T09:41:48;98419.63;;;21.19;58.96
46722;BME280;32455;43.430;23.136;2023-05-07T09:44:40;98409.91;;;21.42;57.62
46722;BME280;32455;43.430;23.136;2023-05-07T09:47:30;98405.81;;;21.40;59.49
46722;BME280;32455;43.430;23.136;2023-05-07T09:50:18;98396.84;;;21.00;60.36
46722;BME280;32455;43.430;23.136;2023-05-07T09:53:04;98397.66;;;21.35;58.71
46722;BME280;32455;43.430;23.136;2023-05-07T09:55:51;98396.19;;;20.74;56.88
46722;BME280;32455;43.430;23.136;2023-05-07T09:58:37;98397.72;;;21.24;59.17
46722;BME280;32455;43.430;23.136;2023-05-07T10:01:25;98393.06;;;21.59;55.59
46722;BME280;32455;43.430;23.136;2023-05-07T10:04:11;98374.53;;;21.51;56.71
46722;BME280;32455;43.430;23.136;2023-05-07T10:06:57;98371.94;;;21.65;53.79
46722;BME280;32455;43.430;23.136;2023-05-07T10:09:43;98365.59;;;21.69;55.56
46722;BME280;32455;43.430;23.136;2023-05-07T10:12:31;98371.38;;;21.68;55.43
46722;BME280;32455;43.430;23.136;2023-05-07T10:15:22;98370.44;;;21.78;56.72
46722;BME280;32455;43.430;23.136;2023-05-07T10:18:09;98383.34;;;21.96;54.83
46722;BME280;32455;43.430;23.136;2023-05-07T10:21:04;98364.50;;;21.94;54.45
46722;BME280;32455;43.430;23.136;2023-05-07T10:23:59;98363.97;;;22.16;55.65
46722;BME280;32455;43.430;23.136;2023-05-07T10:26:48;98361.75;;;21.94;53.78
46722;BME280;32455;43.430;23.136;2023-05-07T10:32:48;98355.56;;;21.84;54.82
46722;BME280;32455;43.430;23.136;2023-05-07T10:35:41;98350.31;;;22.11;54.74
46722;BME280;32455;43.430;23.136;2023-05-07T10:38:29;98358.59;;;22.30;56.36
46722;BME280;32455;43.430;23.136;2023-05-07T10:41:14;98354.81;;;22.26;53.82
46722;BME280;32455;43.430;23.136;2023-05-07T10:44:01;98347.63;;;22.30;52.49
46722;BME280;32455;43.430;23.136;2023-05-07T10:47:10;98342.84;;;22.41;51.76
46722;BME280;32455;43.430;23.136;2023-05-07T10:56:25;98333.53;;;22.23;51.70
46722;BME280;32455;43.430;23.136;2023-05-07T11:02:06;98317.88;;;21.57;52.64
46722;BME280;32455;43.430;23.136;2023-05-07T11:05:19;98335.22;;;22.19;54.37
46722;BME280;32455;43.430;23.136;2023-05-07T11:08:06;98317.81;;;22.29;52.60
46722;BME280;32455;43.430;23.136;2023-05-07T11:10:56;98328.38;;;22.35;52.74
46722;BME280;32455;43.430;23.136;2023-05-07T11:13:46;98323.97;;;22.58;53.74
46722;BME280;32455;43.430;23.136;2023-05-07T11:16:32;98306.72;;;22.58;52.48
46722;BME280;32455;43.430;23.136;2023-05-07T11:25:25;98319.91;;;21.94;53.56
46722;BME280;32455;43.430;23.136;2023-05-07T11:28:10;98303.84;;;22.30;51.50
46722;BME280;32455;43.430;23.136;2023-05-07T11:30:56;98293.97;;;22.48;50.71
46722;BME280;32455;43.430;23.136;2023-05-07T11:33:43;98302.25;;;22.81;49.16
46722;BME280;32455;43.430;23.136;2023-05-07T11:36:32;98307.03;;;22.89;49.98
46722;BME280;32455;43.430;23.136;2023-05-07T11:39:31;98288.81;;;22.98;48.46
46722;BME280;32455;43.430;23.136;2023-05-07T11:42:29;98304.59;;;22.87;48.96
46722;BME280;32455;43.430;23.136;2023-05-07T11:45:23;98297.13;;;23.39;47.15
46722;BME280;32455;43.430;23.136;2023-05-07T11:48:10;98302.50;;;23.44;46.43
46722;BME280;32455;43.430;23.136;2023-05-07T11:51:02;98314.06;;;23.28;44.93
46722;BME280;32455;43.430;23.136;2023-05-07T11:53:50;98307.69;;;22.99;48.01
46722;BME280;32455;43.430;23.136;2023-05-07T11:56:36;98309.72;;;22.75;48.78
46722;BME280;32455;43.430;23.136;2023-05-07T11:59:21;98301.69;;;22.46;49.05
46722;BME280;32455;43.430;23.136;2023-05-07T12:02:07;98296.91;;;22.19;49.59
46722;BME280;32455;43.430;23.136;2023-05-07T12:04:53;98302.41;;;22.70;48.21
46722;BME280;32455;43.430;23.136;2023-05-07T12:07:38;98298.19;;;23.24;47.59
46722;BME280;32455;43.430;23.136;2023-05-07T12:10:25;98289.81;;;23.35;46.72
46722;BME280;32455;43.430;23.136;2023-05-07T12:13:20;98298.53;;;23.50;44.73
46722;BME280;32455;43.430;23.136;2023-05-07T12:16:06;98288.91;;;23.67;44.21
46722;BME280;32455;43.430;23.136;2023-05-07T12:18:52;98273.06;;;23.78;42.76
46722;BME280;32455;43.430;23.136;2023-05-07T12:21:40;98287.19;;;23.57;44.77
46722;BME280;32455;43.430;23.136;2023-05-07T12:24:26;98275.78;;;23.50;44.33
46722;BME280;32455;43.430;23.136;2023-05-07T12:27:11;98270.00;;;23.52;44.65
46722;BME280;32455;43.430;23.136;2023-05-07T12:29:58;98268.78;;;23.58;46.29
46722;BME280;32455;43.430;23.136;2023-05-07T12:32:45;98277.28;;;24.11;45.00
46722;BME280;32455;43.430;23.136;2023-05-07T12:35:32;98264.72;;;24.33;44.33
46722;BME280;32455;43.430;23.136;2023-05-07T12:38:18;98270.50;;;24.31;43.19
46722;BME280;32455;43.430;23.136;2023-05-07T12:41:06;98273.06;;;24.28;42.72
46722;BME280;32455;43.430;23.136;2023-05-07T12:43:56;98270.59;;;24.04;42.98
46722;BME280;32455;43.430;23.136;2023-05-07T12:46:41;98259.16;;;24.24;41.43
46722;BME280;32455;43.430;23.136;2023-05-07T12:49:28;98263.06;;;24.09;43.87
46722;BME280;32455;43.430;23.136;2023-05-07T12:52:13;98256.72;;;23.72;42.38
46722;BME280;32455;43.430;23.136;2023-05-07T12:55:05;98248.16;;;23.46;43.24
46722;BME280;32455;43.430;23.136;2023-05-07T12:57:52;98246.53;;;23.45;43.95
46722;BME280;32455;43.430;23.136;2023-05-07T13:00:39;98249.38;;;23.40;44.15
46722;BME280;32455;43.430;23.136;2023-05-07T13:03:33;98250.09;;;23.60;42.42
46722;BME280;32455;43.430;23.136;2023-05-07T13:06:18;98235.75;;;23.63;42.66
46722;BME280;32455;43.430;23.136;2023-05-07T13:09:04;98251.91;;;23.92;43.12
46722;BME280;32455;43.430;23.136;2023-05-07T13:11:49;98238.63;;;24.21;41.85
46722;BME280;32455;43.430;23.136;2023-05-07T13:14:35;98231.28;;;23.94;42.65
46722;BME280;32455;43.430;23.136;2023-05-07T13:17:21;98232.44;;;24.16;42.55
46722;BME280;32455;43.430;23.136;2023-05-07T13:20:06;98234.53;;;24.55;40.42
46722;BME280;32455;43.430;23.136;2023-05-07T13:22:54;98223.06;;;23.67;45.66
46722;BME280;32455;43.430;23.136;2023-05-07T13:25:39;98233.28;;;24.39;41.63
46722;BME280;32455;43.430;23.136;2023-05-07T13:28:25;98231.88;;;24.28;42.29
46722;BME280;32455;43.430;23.136;2023-05-07T13:31:11;98237.53;;;24.67;40.86
46722;BME280;32455;43.430;23.136;2023-05-07T13:33:56;98230.28;;;24.49;43.45
46722;BME280;32455;43.430;23.136;2023-05-07T13:36:41;98230.78;;;24.73;41.63
46722;BME280;32455;43.430;23.136;2023-05-07T13:39:27;98222.72;;;24.77;39.51
46722;BME280;32455;43.430;23.136;2023-05-07T13:42:12;98227.19;;;23.92;42.75
46722;BME280;32455;43.430;23.136;2023-05-07T13:44:57;98212.81;;;24.09;43.76
46722;BME280;32455;43.430;23.136;2023-05-07T13:47:43;98219.19;;;24.54;41.71
46722;BME280;32455;43.430;23.136;2023-05-07T13:50:33;98218.78;;;24.69;39.89
46722;BME280;32455;43.430;23.136;2023-05-07T13:53:19;98218.69;;;25.06;39.22
46722;BME280;32455;43.430;23.136;2023-05-07T13:56:04;98217.31;;;24.63;39.80
46722;BME280;32455;43.430;23.136;2023-05-07T13:58:50;98224.44;;;24.95;41.66
46722;BME280;32455;43.430;23.136;2023-05-07T14:01:34;98225.84;;;24.84;40.78
46722;BME280;32455;43.430;23.136;2023-05-07T14:04:19;98217.72;;;24.12;42.47
46722;BME280;32455;43.430;23.136;2023-05-07T14:07:05;98222.66;;;23.60;42.76
46722;BME280;32455;43.430;23.136;2023-05-07T14:09:52;98227.75;;;23.39;43.88
46722;BME280;32455;43.430;23.136;2023-05-07T14:12:37;98220.53;;;23.29;44.69
46722;BME280;32455;43.430;23.136;2023-05-07T14:15:23;98223.38;;;23.10;44.43
46722;BME280;32455;43.430;23.136;2023-05-07T14:18:08;98224.28;;;23.06;44.92
46722;BME280;32455;43.430;23.136;2023-05-07T14:20:53;98220.25;;;22.84;45.65
46722;BME280;32455;43.430;23.136;2023-05-07T14:23:39;98207.03;;;22.72;47.02
46722;BME280;32455;43.430;23.136;2023-05-07T14:26:24;98215.59;;;22.85;45.94
46722;BME280;32455;43.430;23.136;2023-05-07T14:29:12;98208.75;;;23.56;47.63
46722;BME280;32455;43.430;23.136;2023-05-07T14:31:57;98215.25;;;24.10;45.25
46722;BME280;32455;43.430;23.136;2023-05-07T14:34:43;98209.72;;;24.24;44.40
46722;BME280;32455;43.430;23.136;2023-05-07T14:37:28;98214.78;;;24.31;44.28
46722;BME280;32455;43.430;23.136;2023-05-07T14:40:14;98221.22;;;23.76;44.28
46722;BME280;32455;43.430;23.136;2023-05-07T14:43:00;98218.38;;;23.54;43.31
46722;BME280;32455;43.430;23.136;2023-05-07T14:45:45;98214.72;;;23.58;44.16